Time;durP1;ratioP1;P1;durP2;ratioP2;P2;SDS_P1;SDS_P2;PMS_P1;PMS_P2;Temp;Humidity;BMP_temperature;BMP_pressure;BME280_temperature;BME280_humidity;BME280_pressure;Samples;Min_cycle;Max_cycle;Signal;HPM_P1;HPM_P2
2022/08/26 00:00:55;;;;;;;14.30;4.75;;;19.70;79.00;;;;;;4167160;28;20069;-88
2022/08/26 00:02:56;;;;;;;11.77;4.00;;;19.70;79.00;;;;;;4148049;28;20249;-88
2022/08/26 00:04:57;;;;;;;15.23;4.85;;;19.70;79.00;;;;;;4165791;28;20599;-87
2022/08/26 00:06:57;;;;;;;20.45;4.85;;;19.70;79.00;;;;;;4165936;28;20029;-88
2022/08/26 00:08:58;;;;;;;17.17;4.80;;;19.70;79.20;;;;;;4150984;28;20107;-88
2022/08/26 00:10:59;;;;;;;20.08;4.72;;;19.70;79.10;;;;;;4165297;28;20035;-87
2022/08/26 00:13:00;;;;;;;14.82;4.55;;;19.70;79.10;;;;;;4140619;28;20037;-88
2022/08/26 00:15:01;;;;;;;16.38;4.70;;;19.70;79.10;;;;;;4165899;28;20247;-87
2022/08/26 00:17:01;;;;;;;12.15;4.03;;;19.70;79.10;;;;;;4150682;28;20037;-87
2022/08/26 00:19:03;;;;;;;13.32;4.32;;;19.70;79.10;;;;;;4156097;28;20040;-88
2022/08/26 00:21:05;;;;;;;10.95;4.20;;;19.70;80.00;;;;;;4165732;28;20025;-87
2022/08/26 00:23:06;;;;;;;14.93;4.43;;;19.70;79.20;;;;;;4149573;28;20052;-88
2022/08/26 00:25:08;;;;;;;12.45;4.60;;;19.70;79.10;;;;;;4149587;28;20022;-87
2022/08/26 00:27:09;;;;;;;18.70;5.53;;;19.70;79.20;;;;;;4166757;28;20033;-88
2022/08/26 00:29:11;;;;;;;12.68;4.07;;;19.80;79.30;;;;;;4144564;28;20104;-87
2022/08/26 00:31:11;;;;;;;13.45;4.63;;;19.70;79.10;;;;;;4145399;28;20033;-88
2022/08/26 00:33:12;;;;;;;16.17;4.53;;;19.70;79.10;;;;;;4147688;28;20032;-87
2022/08/26 00:35:15;;;;;;;19.13;4.43;;;19.80;79.30;;;;;;4162657;28;20133;-88
2022/08/26 00:37:15;;;;;;;14.77;4.40;;;19.80;79.20;;;;;;4163143;28;20036;-88
2022/08/26 00:39:16;;;;;;;15.32;4.75;;;19.80;79.20;;;;;;4149140;28;20033;-87
2022/08/26 00:41:18;;;;;;;14.65;4.55;;;19.80;79.20;;;;;;4152760;28;20646;-87
2022/08/26 00:43:19;;;;;;;17.50;3.95;;;19.80;79.30;;;;;;4157605;28;20100;-88
2022/08/26 00:45:21;;;;;;;12.45;4.65;;;19.80;79.30;;;;;;4163447;28;20557;-88
2022/08/26 00:47:36;;;;;;;19.92;4.53;;;19.80;80.10;;;;;;4163422;28;20017;-89
2022/08/26 00:49:41;;;;;;;22.70;4.82;;;19.80;79.40;;;;;;4161162;28;20204;-88
2022/08/26 00:51:48;;;;;;;20.27;4.53;;;19.70;79.40;;;;;;4149458;28;20037;-88
2022/08/26 00:54:00;;;;;;;18.85;4.40;;;19.80;79.50;;;;;;4127286;28;20536;-87
2022/08/26 00:56:01;;;;;;;16.92;4.43;;;19.80;79.40;;;;;;4162176;28;20032;-88
2022/08/26 00:58:02;;;;;;;13.90;3.70;;;19.80;79.30;;;;;;4161583;28;20087;-88
2022/08/26 01:00:10;;;;;;;9.88;3.92;;;19.80;79.30;;;;;;4165713;28;20034;-89
2022/08/26 01:02:11;;;;;;;14.98;4.45;;;19.80;79.40;;;;;;4160516;28;20025;-88
2022/08/26 01:04:16;;;;;;;13.98;4.25;;;19.80;79.30;;;;;;4143287;28;20468;-87
2022/08/26 01:06:17;;;;;;;16.30;4.90;;;19.80;79.40;;;;;;4143490;28;20025;-87
2022/08/26 01:08:18;;;;;;;14.07;4.43;;;19.80;79.40;;;;;;4150283;28;20132;-87
2022/08/26 01:10:22;;;;;;;17.98;4.25;;;19.80;79.30;;;;;;4169951;28;20029;-88
2022/08/26 01:12:26;;;;;;;17.50;4.78;;;19.80;79.50;;;;;;4150788;28;20025;-86
2022/08/26 01:14:32;;;;;;;13.30;3.78;;;19.80;79.50;;;;;;4149247;28;20040;-88
2022/08/26 01:16:34;;;;;;;19.90;4.63;;;19.80;79.40;;;;;;4166388;28;20030;-87
2022/08/26 01:18:35;;;;;;;18.80;5.07;;;19.80;79.40;;;;;;4144345;28;20021;-87
2022/08/26 01:21:00;;;;;;;19.88;5.40;;;19.80;79.40;;;;;;4161982;28;20061;-87
2022/08/26 01:23:07;;;;;;;18.38;4.82;;;19.80;79.50;;;;;;4161868;28;20029;-88
2022/08/26 01:25:08;;;;;;;18.38;4.38;;;19.80;79.60;;;;;;4162297;28;20033;-88
2022/08/26 01:27:13;;;;;;;11.10;4.68;;;19.80;79.50;;;;;;4133594;28;20393;-88
2022/08/26 01:29:16;;;;;;;15.73;4.25;;;19.80;79.40;;;;;;4162481;28;20098;-88
2022/08/26 01:31:20;;;;;;;15.10;5.07;;;19.80;79.50;;;;;;4163875;28;20113;-89
2022/08/26 01:33:28;;;;;;;11.80;4.57;;;19.80;79.40;;;;;;4164071;28;20102;-87
2022/08/26 01:35:29;;;;;;;9.70;4.15;;;19.80;79.40;;;;;;4147025;28;20131;-88
2022/08/26 01:37:36;;;;;;;11.50;4.47;;;19.80;79.40;;;;;;4167464;28;20025;-88
2022/08/26 01:39:37;;;;;;;12.00;4.68;;;19.80;79.50;;;;;;4162780;28;20037;-88
2022/08/26 01:41:42;;;;;;;15.80;4.55;;;19.80;79.40;;;;;;4168423;28;20025;-88
2022/08/26 01:43:45;;;;;;;16.13;4.50;;;19.80;79.40;;;;;;4160165;28;20038;-87
2022/08/26 01:45:47;;;;;;;18.17;4.75;;;19.80;79.40;;;;;;4166507;28;20037;-85
2022/08/26 01:47:49;;;;;;;16.23;4.63;;;19.80;79.40;;;;;;4142068;28;20026;-87
2022/08/26 01:49:53;;;;;;;17.75;5.35;;;19.80;79.30;;;;;;4166379;28;20067;-87
2022/08/26 01:51:57;;;;;;;13.32;4.45;;;19.80;79.30;;;;;;4163553;28;20451;-88
2022/08/26 01:53:58;;;;;;;17.52;4.93;;;19.80;79.40;;;;;;4164807;28;20033;-87
2022/08/26 01:56:01;;;;;;;13.60;4.90;;;19.80;79.40;;;;;;4163494;28;20036;-89
2022/08/26 01:58:06;;;;;;;16.92;4.82;;;19.80;79.40;;;;;;4148538;28;20041;-90
2022/08/26 02:00:12;;;;;;;19.10;5.35;;;19.80;79.40;;;;;;4167306;28;20928;-89
2022/08/26 02:02:12;;;;;;;20.98;4.70;;;19.80;79.50;;;;;;4166151;28;20041;-88
2022/08/26 02:04:31;;;;;;;16.17;4.60;;;19.80;79.60;;;;;;4150735;28;20076;-88
2022/08/26 02:06:31;;;;;;;15.35;4.35;;;19.80;79.70;;;;;;4168165;28;20132;-88
2022/08/26 02:08:43;;;;;;;12.45;4.07;;;19.80;79.40;;;;;;4167563;28;20021;-87
2022/08/26 02:10:44;;;;;;;19.65;5.38;;;19.80;79.50;;;;;;4168488;28;20039;-87
2022/08/26 02:12:45;;;;;;;19.13;4.70;;;19.80;79.40;;;;;;4166239;28;20045;-86
2022/08/26 02:14:52;;;;;;;17.40;4.50;;;19.80;79.40;;;;;;4139890;28;20041;-88
2022/08/26 02:16:54;;;;;;;28.95;4.93;;;19.80;79.50;;;;;;4167843;28;20049;-87
2022/08/26 02:18:56;;;;;;;22.83;4.65;;;19.80;79.60;;;;;;4176928;28;20029;-87
2022/08/26 02:20:57;;;;;;;12.68;4.50;;;19.80;79.50;;;;;;4159003;28;20034;-88
2022/08/26 02:22:58;;;;;;;12.80;4.60;;;19.80;79.50;;;;;;4172538;28;20029;-88
2022/08/26 02:25:11;;;;;;;17.50;5.07;;;19.80;79.60;;;;;;4175582;28;20066;-88
2022/08/26 02:27:13;;;;;;;16.30;4.28;;;19.80;79.70;;;;;;4173332;28;20052;-86
2022/08/26 02:29:22;;;;;;;20.83;5.55;;;19.80;79.60;;;;;;4152522;28;20060;-88
2022/08/26 02:31:23;;;;;;;22.08;5.45;;;19.80;79.70;;;;;;4152323;28;20036;-88
2022/08/26 02:33:24;;;;;;;18.20;4.53;;;19.70;79.60;;;;;;4169593;28;20128;-88
2022/08/26 02:35:24;;;;;;;18.17;4.82;;;19.80;79.60;;;;;;4151966;28;20060;-88
2022/08/26 02:37:29;;;;;;;11.82;4.93;;;19.80;79.70;;;;;;4150402;28;20448;-88
2022/08/26 02:39:31;;;;;;;18.40;5.13;;;19.70;79.60;;;;;;4165910;28;20032;-88
2022/08/26 02:41:32;;;;;;;23.90;5.20;;;19.70;79.70;;;;;;4164228;28;20063;-89
2022/08/26 02:43:33;;;;;;;20.27;5.40;;;19.70;79.60;;;;;;4159244;28;20104;-89
2022/08/26 02:45:34;;;;;;;13.98;4.53;;;19.70;79.80;;;;;;4153102;28;20138;-89
2022/08/26 02:47:36;;;;;;;12.60;4.97;;;19.70;79.60;;;;;;4166578;28;20031;-88
2022/08/26 02:49:37;;;;;;;20.65;5.35;;;19.70;79.60;;;;;;4166153;28;20025;-88
2022/08/26 02:51:38;;;;;;;16.02;5.53;;;19.70;79.70;;;;;;4166306;28;20049;-89
2022/08/26 02:53:38;;;;;;;12.20;4.95;;;19.70;79.70;;;;;;4167017;28;20040;-87
2022/08/26 02:55:40;;;;;;;19.00;5.88;;;19.70;79.70;;;;;;4169661;28;20400;-90
2022/08/26 02:57:41;;;;;;;23.73;5.85;;;19.60;79.70;;;;;;4148191;28;20040;-89
2022/08/26 02:59:42;;;;;;;16.70;5.32;;;19.70;79.70;;;;;;4146423;28;20041;-88
2022/08/26 03:01:43;;;;;;;9.73;5.18;;;19.60;79.70;;;;;;4151444;28;20651;-87
2022/08/26 03:03:44;;;;;;;16.67;5.00;;;19.70;79.90;;;;;;4151231;28;20033;-89
2022/08/26 03:05:46;;;;;;;25.48;6.25;;;19.60;79.90;;;;;;4170012;28;20018;-89
2022/08/26 03:07:47;;;;;;;16.70;5.20;;;19.60;80.00;;;;;;4161101;28;20025;-88
2022/08/26 03:09:48;;;;;;;11.95;5.07;;;19.60;79.90;;;;;;4169037;28;20059;-88
2022/08/26 03:11:49;;;;;;;33.92;5.43;;;19.60;79.90;;;;;;4155782;28;20037;-88
2022/08/26 03:13:50;;;;;;;15.07;5.78;;;19.60;80.00;;;;;;4155405;28;20026;-89
2022/08/26 03:15:51;;;;;;;19.83;5.60;;;19.50;80.00;;;;;;4170442;28;20088;-88
2022/08/26 03:17:51;;;;;;;13.55;5.30;;;19.50;80.20;;;;;;4151756;28;20493;-89
2022/08/26 03:19:52;;;;;;;15.05;5.28;;;19.60;80.20;;;;;;4148645;28;20022;-89
2022/08/26 03:21:53;;;;;;;12.70;4.90;;;19.60;80.20;;;;;;4164379;28;20078;-88
2022/08/26 03:23:55;;;;;;;16.10;5.75;;;19.60;80.20;;;;;;4169279;28;20127;-90
2022/08/26 03:25:55;;;;;;;16.95;5.75;;;19.50;80.30;;;;;;4165507;28;20077;-88
2022/08/26 03:27:56;;;;;;;16.58;6.18;;;19.50;80.50;;;;;;4168119;28;20074;-87
2022/08/26 03:32:17;;;;;;;22.10;5.72;;;19.50;81.10;;;;;;4164489;28;20024;-87
2022/08/26 03:34:19;;;;;;;19.13;6.05;;;19.50;80.30;;;;;;4165757;28;20040;-87
2022/08/26 03:36:21;;;;;;;14.82;4.93;;;19.50;80.30;;;;;;4168768;28;20029;-88
2022/08/26 03:38:24;;;;;;;18.77;6.22;;;19.50;80.30;;;;;;4165262;28;20524;-88
2022/08/26 03:40:25;;;;;;;12.07;5.65;;;19.50;80.40;;;;;;4169841;28;20035;-88
2022/08/26 03:42:26;;;;;;;13.85;5.38;;;19.50;80.40;;;;;;4136303;28;20053;-88
2022/08/26 03:44:26;;;;;;;17.98;5.85;;;19.50;80.30;;;;;;4153770;28;20060;-89
2022/08/26 03:46:27;;;;;;;18.33;5.85;;;19.50;80.40;;;;;;4149006;28;20034;-88
2022/08/26 03:48:28;;;;;;;22.08;5.55;;;19.50;80.60;;;;;;4148675;28;20021;-88
2022/08/26 03:50:29;;;;;;;14.23;6.15;;;19.40;80.40;;;;;;4170018;28;20123;-87
2022/08/26 03:52:30;;;;;;;15.27;6.15;;;19.40;80.40;;;;;;4149741;28;20030;-87
2022/08/26 03:54:31;;;;;;;13.52;6.10;;;19.40;80.60;;;;;;4151016;28;20022;-87
2022/08/26 03:56:32;;;;;;;21.60;6.70;;;19.40;80.60;;;;;;4165515;28;20615;-88
2022/08/26 03:58:33;;;;;;;19.77;6.30;;;19.40;80.80;;;;;;4165974;28;20428;-86
2022/08/26 04:00:34;;;;;;;14.02;5.97;;;19.40;80.80;;;;;;4168193;28;20040;-87
2022/08/26 04:02:34;;;;;;;17.55;5.95;;;19.40;80.70;;;;;;4155773;28;20021;-89
2022/08/26 04:04:36;;;;;;;14.70;7.05;;;19.40;80.80;;;;;;4164337;28;20426;-88
2022/08/26 04:06:42;;;;;;;14.98;6.07;;;19.40;81.00;;;;;;4163549;28;20104;-87
2022/08/26 04:08:43;;;;;;;21.55;5.95;;;19.40;81.10;;;;;;4152415;28;20022;-87
2022/08/26 04:10:44;;;;;;;23.05;7.22;;;19.40;80.90;;;;;;4165332;28;20092;-88
2022/08/26 04:12:46;;;;;;;22.40;6.70;;;19.30;81.00;;;;;;4154768;28;20025;-87
2022/08/26 04:14:47;;;;;;;21.88;6.75;;;19.40;81.10;;;;;;4153041;28;20386;-87
2022/08/26 04:16:49;;;;;;;14.90;6.00;;;19.30;81.00;;;;;;4148082;28;20576;-86
2022/08/26 04:18:49;;;;;;;22.55;6.47;;;19.30;81.00;;;;;;4167448;28;20087;-87
2022/08/26 04:20:50;;;;;;;20.02;5.93;;;19.30;81.30;;;;;;4136179;28;20030;-86
2022/08/26 04:22:50;;;;;;;18.10;6.65;;;19.30;81.20;;;;;;4168973;28;20025;-87
2022/08/26 04:24:51;;;;;;;14.90;6.03;;;19.30;81.30;;;;;;4148568;28;20021;-87
2022/08/26 04:26:52;;;;;;;15.85;6.70;;;19.30;81.40;;;;;;4166613;28;20013;-87
2022/08/26 04:28:54;;;;;;;21.77;6.55;;;19.30;81.70;;;;;;4149458;28;20045;-87
2022/08/26 04:30:54;;;;;;;27.95;7.97;;;19.30;81.70;;;;;;4176020;28;20039;-87
2022/08/26 04:32:55;;;;;;;14.10;6.90;;;19.30;81.80;;;;;;4158810;28;21210;-89
2022/08/26 04:34:56;;;;;;;17.63;7.22;;;19.30;82.00;;;;;;4152309;28;20528;-90
2022/08/26 04:36:57;;;;;;;13.80;6.15;;;19.30;82.00;;;;;;4168857;28;20100;-89
2022/08/26 04:39:00;;;;;;;14.15;6.10;;;19.30;81.90;;;;;;4150952;28;20417;-87
2022/08/26 04:41:02;;;;;;;19.15;6.65;;;19.30;82.00;;;;;;4152059;28;20025;-87
2022/08/26 04:43:04;;;;;;;15.60;6.60;;;19.30;82.00;;;;;;4166298;28;20025;-88
2022/08/26 04:45:05;;;;;;;19.30;6.47;;;19.30;82.10;;;;;;4148152;28;20585;-89
2022/08/26 04:47:06;;;;;;;18.92;6.75;;;19.30;82.10;;;;;;4175506;28;20025;-87
2022/08/26 04:49:08;;;;;;;22.50;8.60;;;19.40;82.10;;;;;;4165852;28;20067;-88
2022/08/26 04:51:09;;;;;;;21.70;6.90;;;19.40;82.20;;;;;;4164331;28;20025;-88
2022/08/26 04:53:10;;;;;;;21.35;6.50;;;19.40;82.30;;;;;;4166929;28;20115;-87
2022/08/26 04:55:11;;;;;;;21.23;6.85;;;19.40;82.30;;;;;;4149690;28;20053;-86
2022/08/26 04:57:12;;;;;;;18.98;7.10;;;19.40;82.50;;;;;;4154812;28;20065;-87
2022/08/26 04:59:14;;;;;;;18.55;7.53;;;19.40;82.60;;;;;;4167375;28;20033;-87
2022/08/26 05:01:15;;;;;;;19.23;6.43;;;19.40;82.40;;;;;;4150829;28;20029;-87
2022/08/26 05:03:17;;;;;;;18.77;6.70;;;19.40;82.60;;;;;;4151780;28;20428;-87
2022/08/26 05:05:18;;;;;;;14.82;7.25;;;19.40;82.50;;;;;;4167171;28;20021;-88
2022/08/26 05:07:19;;;;;;;23.33;7.10;;;19.40;82.60;;;;;;4163128;28;20021;-88
2022/08/26 05:09:19;;;;;;;14.82;7.28;;;19.40;82.70;;;;;;4163754;28;20029;-88
2022/08/26 05:11:20;;;;;;;19.73;6.88;;;19.40;82.80;;;;;;4161358;28;20164;-88
2022/08/26 05:13:26;;;;;;;19.30;6.65;;;19.50;82.80;;;;;;4165572;28;20033;-87
2022/08/26 05:15:26;;;;;;;16.33;7.00;;;19.50;82.80;;;;;;4164722;28;20495;-88
2022/08/26 05:17:27;;;;;;;19.65;7.63;;;19.50;82.80;;;;;;4145498;28;20030;-88
2022/08/26 05:19:29;;;;;;;25.30;7.43;;;19.50;82.80;;;;;;4148488;28;20026;-88
2022/08/26 05:21:29;;;;;;;30.00;7.43;;;19.50;83.00;;;;;;4165072;28;20053;-88
2022/08/26 05:23:30;;;;;;;21.67;7.80;;;19.50;83.20;;;;;;4187311;28;20040;-88
2022/08/26 05:25:40;;;;;;;21.85;7.38;;;19.50;83.10;;;;;;4179832;28;20103;-88
2022/08/26 05:27:41;;;;;;;16.05;7.35;;;19.50;83.30;;;;;;4157199;28;20033;-88
2022/08/26 05:29:41;;;;;;;21.80;7.05;;;19.50;83.30;;;;;;4149878;28;20425;-87
2022/08/26 05:31:42;;;;;;;19.75;6.95;;;19.50;83.30;;;;;;4170597;28;20046;-88
2022/08/26 05:33:44;;;;;;;23.45;8.15;;;19.50;83.30;;;;;;4138167;28;20030;-89
2022/08/26 05:35:45;;;;;;;21.20;7.45;;;19.60;83.40;;;;;;4171267;28;20040;-87
2022/08/26 05:37:46;;;;;;;18.63;7.38;;;19.60;83.20;;;;;;4170635;28;20102;-88
2022/08/26 05:39:46;;;;;;;23.77;7.88;;;19.50;83.80;;;;;;4156543;28;20025;-87
2022/08/26 05:41:47;;;;;;;25.55;7.75;;;19.60;83.10;;;;;;4186314;28;20032;-87
2022/08/26 05:43:48;;;;;;;17.58;6.93;;;19.60;83.20;;;;;;4149379;28;20038;-88
2022/08/26 05:45:49;;;;;;;25.13;8.65;;;19.70;83.30;;;;;;4170336;28;20040;-88
2022/08/26 05:47:50;;;;;;;19.90;8.48;;;19.70;83.60;;;;;;4170820;28;20043;-87
2022/08/26 05:49:51;;;;;;;26.98;8.45;;;19.70;83.50;;;;;;4164649;28;20038;-85
2022/08/26 05:51:52;;;;;;;23.17;9.35;;;19.70;83.50;;;;;;4164927;28;20075;-85
2022/08/26 05:53:53;;;;;;;19.40;8.27;;;19.80;83.90;;;;;;4164304;28;20029;-85
2022/08/26 05:55:55;;;;;;;36.25;10.00;;;19.80;83.90;;;;;;4166270;28;20041;-85
2022/08/26 05:57:56;;;;;;;19.83;9.00;;;19.80;83.80;;;;;;4157094;28;20034;-84
2022/08/26 05:59:56;;;;;;;21.45;9.40;;;19.80;83.80;;;;;;4157290;28;20404;-85
2022/08/26 06:01:58;;;;;;;26.80;9.50;;;19.80;83.70;;;;;;4142475;28;20040;-85
2022/08/26 06:04:00;;;;;;;23.58;9.75;;;19.80;83.60;;;;;;4151840;28;20107;-85
2022/08/26 06:06:09;;;;;;;22.48;9.13;;;19.90;83.50;;;;;;4156081;28;20523;-85
2022/08/26 06:08:10;;;;;;;29.63;9.43;;;19.90;83.50;;;;;;4165817;28;20033;-85
2022/08/26 06:10:13;;;;;;;33.42;9.95;;;19.90;83.20;;;;;;4153240;28;20402;-85
2022/08/26 06:12:14;;;;;;;26.67;8.63;;;20.00;83.30;;;;;;4163951;28;20576;-85
2022/08/26 06:14:16;;;;;;;22.98;8.63;;;20.00;83.30;;;;;;4151075;28;20548;-85
2022/08/26 06:16:19;;;;;;;20.80;8.23;;;20.00;83.30;;;;;;4146837;28;20512;-85
2022/08/26 06:18:23;;;;;;;26.15;8.35;;;20.00;83.40;;;;;;4138806;28;20646;-84
2022/08/26 06:20:24;;;;;;;26.10;8.85;;;20.00;83.60;;;;;;4168736;28;20657;-85
2022/08/26 06:27:08;;;;;;;22.20;7.25;;;20.10;82.90;;;;;;4152279;28;20559;-86
2022/08/26 06:29:09;;;;;;;22.42;8.10;;;20.20;82.90;;;;;;4154511;28;20551;-86
2022/08/26 06:31:09;;;;;;;27.48;8.30;;;20.20;82.80;;;;;;4167310;28;20057;-86
2022/08/26 06:33:10;;;;;;;20.98;8.23;;;20.20;82.80;;;;;;4137328;28;20141;-85
2022/08/26 06:35:11;;;;;;;20.42;7.55;;;20.20;82.50;;;;;;4153274;28;20108;-86
2022/08/26 06:37:13;;;;;;;20.35;7.53;;;20.30;82.50;;;;;;4169721;28;20126;-86
2022/08/26 06:39:15;;;;;;;27.98;8.50;;;20.30;82.50;;;;;;4154193;28;20136;-86
2022/08/26 06:41:19;;;;;;;28.73;8.05;;;20.30;82.50;;;;;;4148182;28;21071;-86
2022/08/26 06:43:23;;;;;;;18.20;7.15;;;20.40;82.50;;;;;;4153082;28;20698;-85
2022/08/26 06:45:24;;;;;;;22.42;8.30;;;20.40;82.50;;;;;;4167831;28;20243;-87
2022/08/26 06:47:26;;;;;;;26.25;8.20;;;20.40;82.40;;;;;;4171415;28;20056;-86
2022/08/26 06:49:26;;;;;;;23.05;7.85;;;20.40;82.10;;;;;;4157555;28;20029;-85
2022/08/26 06:51:31;;;;;;;18.75;8.15;;;20.50;82.10;;;;;;4151807;28;20104;-86
2022/08/26 06:53:31;;;;;;;20.10;7.97;;;20.50;81.90;;;;;;4170381;28;20109;-86
2022/08/26 06:55:33;;;;;;;22.77;8.00;;;20.50;81.80;;;;;;4174402;28;20025;-87
2022/08/26 06:57:35;;;;;;;25.92;8.90;;;20.60;81.50;;;;;;4171898;28;20029;-86
2022/08/26 06:59:36;;;;;;;17.30;8.15;;;20.60;81.30;;;;;;4158246;28;20357;-86
2022/08/26 07:01:43;;;;;;;21.85;8.50;;;20.60;81.10;;;;;;4173733;28;20037;-86
2022/08/26 07:03:44;;;;;;;22.77;7.88;;;20.60;81.10;;;;;;4154907;28;20049;-85
2022/08/26 07:05:45;;;;;;;22.90;8.68;;;20.60;81.00;;;;;;4156757;28;20036;-86
2022/08/26 07:07:47;;;;;;;26.05;8.40;;;20.70;81.00;;;;;;4156504;28;20031;-87
2022/08/26 07:09:47;;;;;;;18.50;8.40;;;20.70;81.10;;;;;;4152738;28;20021;-87
2022/08/26 07:11:50;;;;;;;17.17;7.20;;;20.70;81.10;;;;;;4170655;28;20067;-86
2022/08/26 07:13:50;;;;;;;29.73;8.20;;;20.70;81.00;;;;;;4173657;28;20044;-86
2022/08/26 07:15:52;;;;;;;22.02;8.18;;;20.80;81.00;;;;;;4159120;28;20033;-86
2022/08/26 07:17:52;;;;;;;17.13;7.95;;;20.80;80.90;;;;;;4170986;28;20036;-87
2022/08/26 07:19:53;;;;;;;17.05;8.05;;;20.80;80.70;;;;;;4175529;28;20033;-86
2022/08/26 07:21:54;;;;;;;21.08;7.55;;;20.90;80.60;;;;;;4155996;28;20120;-87
2022/08/26 07:23:55;;;;;;;27.50;10.02;;;20.90;80.30;;;;;;4155504;28;20033;-87
2022/08/26 07:25:55;;;;;;;19.85;8.65;;;20.90;80.10;;;;;;4188057;28;20070;-86
2022/08/26 07:27:56;;;;;;;19.75;9.85;;;20.90;80.00;;;;;;4158034;28;20037;-86
2022/08/26 07:29:57;;;;;;;20.65;8.75;;;20.90;79.80;;;;;;4175329;28;20522;-87
2022/08/26 07:31:58;;;;;;;25.13;9.70;;;21.00;79.80;;;;;;4158203;28;20029;-87
2022/08/26 07:33:59;;;;;;;25.75;9.95;;;21.00;79.40;;;;;;4173326;28;20104;-89
2022/08/26 07:35:59;;;;;;;26.60;9.90;;;21.00;79.20;;;;;;4169402;28;20130;-88
2022/08/26 07:38:00;;;;;;;20.08;8.95;;;20.90;79.10;;;;;;4180712;28;20057;-88
2022/08/26 07:40:02;;;;;;;23.38;9.10;;;21.00;79.20;;;;;;4188839;28;20071;-87
2022/08/26 07:42:04;;;;;;;18.95;8.98;;;21.00;79.20;;;;;;4167277;28;20026;-88
2022/08/26 07:44:05;;;;;;;20.02;8.60;;;21.00;79.20;;;;;;4168188;28;20037;-88
2022/08/26 07:46:07;;;;;;;22.52;9.60;;;21.10;79.30;;;;;;4168829;28;20031;-87
2022/08/26 07:48:08;;;;;;;24.38;9.85;;;21.10;79.30;;;;;;4168871;28;20523;-88
2022/08/26 07:50:09;;;;;;;21.23;9.20;;;21.10;79.20;;;;;;4171610;28;20052;-89
2022/08/26 07:52:10;;;;;;;19.77;8.48;;;21.20;79.30;;;;;;4135889;28;20049;-87
2022/08/26 07:54:10;;;;;;;21.23;9.00;;;21.20;79.20;;;;;;4156591;28;20034;-88
2022/08/26 07:56:12;;;;;;;20.13;8.63;;;21.20;79.00;;;;;;4169122;28;20058;-90
2022/08/26 07:58:13;;;;;;;24.25;9.15;;;21.30;78.80;;;;;;4170709;28;20021;-89
2022/08/26 08:00:15;;;;;;;30.45;8.40;;;21.30;78.70;;;;;;4168887;28;20043;-88
2022/08/26 08:02:16;;;;;;;27.05;9.07;;;21.40;78.70;;;;;;4158444;28;20113;-89
2022/08/26 08:04:18;;;;;;;22.58;8.43;;;21.40;78.60;;;;;;4136587;28;20018;-88
2022/08/26 08:06:21;;;;;;;21.07;8.73;;;21.50;78.60;;;;;;4154140;28;20112;-89
2022/08/26 08:08:22;;;;;;;34.67;10.65;;;21.50;78.70;;;;;;4167915;28;20033;-90
2022/08/26 08:10:24;;;;;;;24.48;10.23;;;21.50;77.70;;;;;;4151314;28;20029;-90
2022/08/26 08:12:25;;;;;;;33.38;9.88;;;21.50;77.10;;;;;;4184420;28;20074;-89
2022/08/26 08:14:25;;;;;;;29.60;10.57;;;21.60;77.10;;;;;;4150697;28;20033;-88
2022/08/26 08:16:29;;;;;;;22.48;10.68;;;21.60;77.10;;;;;;4183082;28;20025;-89
2022/08/26 08:18:30;;;;;;;22.73;9.52;;;21.60;76.90;;;;;;4171497;28;20036;-89
2022/08/26 08:20:31;;;;;;;16.00;9.02;;;21.70;76.80;;;;;;4147740;28;20033;-88
2022/08/26 08:22:32;;;;;;;30.95;9.93;;;21.70;76.90;;;;;;4160909;28;20299;-87
2022/08/26 08:24:33;;;;;;;33.60;11.43;;;21.70;76.80;;;;;;4169703;28;20100;-88
2022/08/26 08:26:34;;;;;;;28.65;10.98;;;21.70;76.40;;;;;;4151864;28;20030;-86
2022/08/26 08:28:37;;;;;;;33.95;13.00;;;21.70;75.90;;;;;;4166120;28;20107;-89
2022/08/26 08:30:39;;;;;;;26.40;10.90;;;21.70;75.70;;;;;;4169241;28;20120;-87
2022/08/26 08:32:42;;;;;;;28.75;11.82;;;21.70;75.80;;;;;;4148908;28;20484;-87
2022/08/26 08:34:43;;;;;;;22.52;12.32;;;21.70;76.20;;;;;;4140022;28;20385;-87
2022/08/26 08:36:45;;;;;;;32.55;12.35;;;21.60;75.90;;;;;;4160830;28;20559;-87
2022/08/26 08:38:46;;;;;;;23.40;10.93;;;21.60;75.80;;;;;;4162184;28;20604;-87
2022/08/26 08:40:46;;;;;;;27.17;11.30;;;21.60;75.90;;;;;;4164741;28;20056;-86
2022/08/26 08:43:05;;;;;;;22.38;9.57;;;21.60;76.10;;;;;;4167330;28;20056;-86
2022/08/26 08:45:16;;;;;;;31.92;10.60;;;21.70;76.40;;;;;;4155725;28;20030;-87
2022/08/26 08:47:27;;;;;;;28.90;9.93;;;21.70;76.40;;;;;;4154051;28;20086;-88
2022/08/26 08:49:29;;;;;;;17.83;9.73;;;21.70;76.40;;;;;;4169175;28;20033;-89
2022/08/26 08:51:53;;;;;;;19.52;9.30;;;21.80;76.50;;;;;;4151666;28;20040;-90
2022/08/26 08:53:55;;;;;;;23.48;9.43;;;21.80;76.00;;;;;;4165728;28;20043;-89
2022/08/26 08:56:06;;;;;;;23.70;9.73;;;21.90;76.30;;;;;;4170631;28;20253;-89
2022/08/26 08:58:15;;;;;;;14.57;8.63;;;21.90;76.20;;;;;;4185696;28;20024;-89
2022/08/26 09:00:18;;;;;;;21.38;9.52;;;22.00;76.10;;;;;;4169736;28;20063;-89
2022/08/26 09:02:34;;;;;;;19.75;9.93;;;22.10;76.20;;;;;;4167349;28;20032;-87
2022/08/26 09:04:38;;;;;;;23.40;10.15;;;22.20;76.20;;;;;;4168870;28;20032;-89
2022/08/26 09:06:39;;;;;;;33.38;12.95;;;22.20;75.80;;;;;;4171523;28;20033;-90
2022/08/26 09:08:40;;;;;;;23.85;11.52;;;22.20;75.10;;;;;;4153187;28;20456;-89
2022/08/26 09:10:51;;;;;;;22.33;12.23;;;22.30;74.70;;;;;;4155076;28;20033;-90
2022/08/26 09:12:52;;;;;;;26.92;11.88;;;22.30;74.40;;;;;;4163072;28;20033;-90
2022/08/26 09:15:00;;;;;;;20.75;10.30;;;22.40;74.20;;;;;;4185578;28;20032;-88
2022/08/26 09:17:21;;;;;;;21.88;10.60;;;22.40;74.10;;;;;;4168460;28;20071;-90
2022/08/26 09:19:22;;;;;;;23.17;11.82;;;22.40;73.10;;;;;;4155248;28;20029;-89
2022/08/26 09:21:23;;;;;;;20.25;10.75;;;22.40;73.00;;;;;;4168212;28;20028;-90
2022/08/26 09:23:25;;;;;;;23.55;10.50;;;22.50;73.10;;;;;;4156055;28;20033;-90
2022/08/26 09:25:26;;;;;;;23.98;9.23;;;22.50;73.00;;;;;;4153073;28;20029;-89
2022/08/26 09:27:44;;;;;;;18.98;8.65;;;22.50;73.40;;;;;;4186927;28;20020;-89
2022/08/26 09:29:45;;;;;;;17.73;8.38;;;22.50;72.90;;;;;;4151985;28;20622;-89
2022/08/26 09:31:45;;;;;;;17.65;8.32;;;22.50;73.20;;;;;;4152823;28;20057;-89
2022/08/26 09:33:47;;;;;;;17.88;7.70;;;22.60;73.30;;;;;;4170161;28;20021;-90
2022/08/26 09:35:51;;;;;;;16.55;8.07;;;22.70;73.10;;;;;;4172124;28;20068;-90
2022/08/26 09:37:52;;;;;;;19.15;7.32;;;22.70;72.10;;;;;;4165478;28;20573;-90
2022/08/26 09:39:53;;;;;;;17.10;8.40;;;22.70;72.40;;;;;;4168349;28;20060;-90
2022/08/26 09:42:04;;;;;;;18.63;8.88;;;22.70;72.30;;;;;;4162125;28;20599;-90
2022/08/26 09:44:19;;;;;;;20.00;8.23;;;22.80;71.60;;;;;;4169423;28;20029;-90
2022/08/26 09:46:26;;;;;;;18.95;8.13;;;22.80;71.40;;;;;;4164610;28;20213;-89
2022/08/26 09:48:33;;;;;;;23.73;9.18;;;22.80;71.60;;;;;;4171381;28;20025;-89
2022/08/26 09:50:36;;;;;;;25.13;8.68;;;22.90;71.20;;;;;;4184978;28;20260;-91
2022/08/26 09:52:37;;;;;;;15.10;8.27;;;22.90;71.60;;;;;;4169452;28;20416;-91
2022/08/26 09:54:37;;;;;;;25.13;10.18;;;23.00;71.80;;;;;;4186070;28;20032;-91
2022/08/26 09:56:38;;;;;;;24.38;10.07;;;23.00;71.20;;;;;;4134234;28;20037;-91
2022/08/26 09:58:42;;;;;;;23.30;8.55;;;23.00;70.50;;;;;;4148767;28;20041;-89
2022/08/26 10:00:55;;;;;;;16.13;9.02;;;23.00;70.80;;;;;;4137258;28;21291;-89
2022/08/26 10:02:57;;;;;;;;;;;23.10;70.80;;;;;;4137747;28;20602;-89
2022/08/26 10:05:01;;;;;;;24.30;8.63;;;23.10;70.50;;;;;;4150183;28;19952;-90
2022/08/26 10:07:05;;;;;;;18.40;9.10;;;23.10;70.90;;;;;;4167754;28;20035;-89
2022/08/26 10:09:09;;;;;;;21.38;8.27;;;23.20;71.10;;;;;;4167517;28;20099;-89
2022/08/26 10:11:38;;;;;;;20.05;8.07;;;23.20;71.00;;;;;;4168936;28;20082;-89
2022/08/26 10:13:44;;;;;;;23.85;8.45;;;23.20;70.60;;;;;;4159744;28;20037;-90
2022/08/26 10:16:09;;;;;;;21.73;9.35;;;23.30;70.10;;;;;;4156725;28;20398;-90
2022/08/26 10:18:20;;;;;;;18.73;8.65;;;23.30;69.80;;;;;;4183921;28;20029;-89
2022/08/26 10:20:27;;;;;;;15.93;8.02;;;23.40;69.80;;;;;;4167384;28;20029;-90
2022/08/26 10:22:45;;;;;;;22.77;8.85;;;23.40;69.90;;;;;;4155085;28;20041;-90
2022/08/26 10:24:50;;;;;;;18.90;8.75;;;23.40;69.20;;;;;;4136578;28;20054;-89
2022/08/26 10:27:05;;;;;;;20.17;8.15;;;23.50;69.60;;;;;;4132839;28;20030;-89
2022/08/26 10:29:26;;;;;;;14.98;8.35;;;23.50;69.20;;;;;;4181343;28;20033;-90
2022/08/26 10:31:38;;;;;;;20.40;7.97;;;23.50;69.10;;;;;;4164885;28;20087;-88
2022/08/26 10:33:39;;;;;;;20.70;8.05;;;23.50;69.00;;;;;;4164605;28;20033;-89
2022/08/26 10:35:50;;;;;;;19.25;8.38;;;23.60;69.30;;;;;;4147673;28;20033;-88
2022/08/26 10:37:56;;;;;;;14.77;8.63;;;23.60;68.80;;;;;;4151427;28;20600;-88